Time;durP1;ratioP1;P1;durP2;ratioP2;P2;SDS_P1;SDS_P2;PMS_P1;PMS_P2;Temp;Humidity;BMP_temperature;BMP_pressure;BME280_temperature;BME280_humidity;BME280_pressure;Samples;Min_cycle;Max_cycle;Signal;HPM_P1;HPM_P2
2022/08/10 00:01:04;;;;;;;1.27;0.25;;;18.20;99.90;;;;;;4986420;28;20034;-67
2022/08/10 00:03:29;;;;;;;1.02;0.20;;;18.20;99.90;;;;;;4979003;28;20976;-71
2022/08/10 00:05:55;;;;;;;1.08;0.43;;;18.20;99.90;;;;;;4986632;28;20104;-70
2022/08/10 00:08:23;;;;;;;0.75;0.30;;;18.20;99.90;;;;;;4979728;28;20035;-72
2022/08/10 00:10:53;;;;;;;1.83;0.43;;;18.10;99.90;;;;;;4976185;28;20035;-65
2022/08/10 00:13:19;;;;;;;0.20;0.15;;;18.10;99.90;;;;;;4977584;28;20046;-69
2022/08/10 00:15:44;;;;;;;6.78;0.32;;;18.10;99.90;;;;;;4986203;28;20471;-69
2022/08/10 00:18:10;;;;;;;1.52;0.55;;;18.00;99.90;;;;;;4978578;28;20038;-70
2022/08/10 00:20:35;;;;;;;0.57;0.20;;;17.90;99.90;;;;;;4976263;28;20030;-68
2022/08/10 00:23:01;;;;;;;1.85;0.30;;;17.90;99.90;;;;;;4979591;28;20026;-70
2022/08/10 00:25:27;;;;;;;3.95;0.40;;;17.90;99.90;;;;;;4981466;28;20073;-70
2022/08/10 00:27:52;;;;;;;1.08;0.47;;;17.90;99.90;;;;;;4978415;28;20042;-70
2022/08/10 00:30:18;;;;;;;0.20;0.20;;;17.80;99.90;;;;;;4976946;28;20034;-70
2022/08/10 00:32:43;;;;;;;1.05;0.40;;;17.80;99.90;;;;;;4983404;28;20031;-71
2022/08/10 00:35:09;;;;;;;0.75;0.20;;;17.80;99.90;;;;;;5009336;28;20608;-69
2022/08/10 00:37:35;;;;;;;0.63;0.30;;;17.80;99.90;;;;;;4976499;28;20038;-68
2022/08/10 00:40:00;;;;;;;0.68;0.30;;;17.70;99.90;;;;;;4980105;28;20068;-69
2022/08/10 00:42:26;;;;;;;1.48;0.45;;;17.70;99.90;;;;;;4976390;28;20027;-71
2022/08/10 00:44:52;;;;;;;0.60;0.13;;;17.70;99.90;;;;;;4984256;28;20109;-70
2022/08/10 00:47:18;;;;;;;0.40;0.22;;;17.70;99.90;;;;;;4983790;28;20399;-70
2022/08/10 00:49:44;;;;;;;1.23;0.30;;;17.70;99.90;;;;;;4980014;28;20045;-67
2022/08/10 00:52:12;;;;;;;1.58;0.43;;;17.70;99.90;;;;;;4978570;28;20038;-72
2022/08/10 00:54:39;;;;;;;3.53;0.90;;;17.70;99.90;;;;;;4986438;28;20034;-69
2022/08/10 00:57:05;;;;;;;0.38;0.20;;;17.70;99.90;;;;;;4993082;28;20557;-71
2022/08/10 00:59:32;;;;;;;1.10;0.30;;;17.60;99.90;;;;;;4988609;28;20030;-70
2022/08/10 01:01:59;;;;;;;0.50;0.30;;;17.60;99.90;;;;;;4984971;28;20045;-71
2022/08/10 01:04:25;;;;;;;1.17;0.43;;;17.60;99.90;;;;;;4979748;28;20019;-69
2022/08/10 01:07:08;;;;;;;0.43;0.20;;;17.60;99.90;;;;;;4987764;28;20418;-71
2022/08/10 01:09:43;;;;;;;0.73;0.30;;;17.60;99.90;;;;;;4982893;28;20392;-72
2022/08/10 01:12:18;;;;;;;0.50;0.30;;;17.50;99.90;;;;;;4979780;28;20058;-71
2022/08/10 01:14:49;;;;;;;0.98;0.40;;;17.50;99.90;;;;;;4979851;28;20051;-70
2022/08/10 01:17:35;;;;;;;1.17;0.30;;;17.50;99.90;;;;;;4980376;28;20030;-70
2022/08/10 01:20:39;;;;;;;1.67;0.20;;;17.40;99.90;;;;;;4981803;28;20479;-70
2022/08/10 01:23:41;;;;;;;0.68;0.30;;;17.50;99.90;;;;;;4983280;28;20027;-70
2022/08/10 01:26:29;;;;;;;0.10;0.10;;;17.50;99.90;;;;;;4985089;28;20117;-70
2022/08/10 01:29:32;;;;;;;1.05;0.32;;;17.40;99.90;;;;;;4995675;28;20023;-69
2022/08/10 01:32:03;;;;;;;2.05;0.82;;;17.40;99.90;;;;;;4983040;28;20038;-70
2022/08/10 01:34:39;;;;;;;3.63;0.73;;;17.40;99.90;;;;;;4978662;28;20027;-69
2022/08/10 01:37:10;;;;;;;1.10;0.30;;;17.40;99.90;;;;;;4991942;28;20042;-70
2022/08/10 01:39:40;;;;;;;0.30;0.20;;;17.30;99.90;;;;;;4989624;28;20035;-70
2022/08/10 01:42:12;;;;;;;1.10;0.43;;;17.30;99.90;;;;;;4989443;28;20030;-70
2022/08/10 01:44:48;;;;;;;0.40;0.20;;;17.30;99.90;;;;;;4984195;28;20029;-70
2022/08/10 01:50:08;;;;;;;0.40;0.20;;;17.30;99.90;;;;;;4981764;28;20209;-68
2022/08/10 01:52:36;;;;;;;0.75;0.55;;;17.30;99.90;;;;;;4977861;28;20022;-70
2022/08/10 01:55:03;;;;;;;2.15;0.73;;;17.30;99.90;;;;;;4979738;28;20054;-68
2022/08/10 01:57:32;;;;;;;1.88;0.30;;;17.30;99.90;;;;;;4980585;28;20046;-70
2022/08/10 01:59:59;;;;;;;0.68;0.30;;;17.30;99.90;;;;;;4978292;28;20565;-70
2022/08/10 02:02:28;;;;;;;0.80;0.40;;;17.20;99.90;;;;;;4979913;28;20411;-68
2022/08/10 02:04:54;;;;;;;2.40;0.40;;;17.20;99.90;;;;;;4982825;28;20205;-70
2022/08/10 02:07:24;;;;;;;0.70;0.50;;;17.20;99.90;;;;;;4980228;28;20030;-70
2022/08/10 02:09:57;;;;;;;1.20;0.38;;;17.20;99.90;;;;;;4980616;28;20057;-70
2022/08/10 02:12:26;;;;;;;0.70;0.55;;;17.10;99.90;;;;;;4980714;28;20038;-69
2022/08/10 02:14:59;;;;;;;0.40;0.30;;;17.10;99.90;;;;;;4982133;28;20026;-70
2022/08/10 02:17:47;;;;;;;0.52;0.28;;;17.10;99.90;;;;;;4982342;28;20100;-69
2022/08/10 02:20:23;;;;;;;2.03;0.43;;;17.00;99.90;;;;;;4979016;28;20522;-70
2022/08/10 02:22:52;;;;;;;0.88;0.55;;;17.10;99.90;;;;;;5013250;28;20090;-70
2022/08/10 02:25:20;;;;;;;2.22;0.68;;;17.10;99.90;;;;;;4990361;28;20027;-70
2022/08/10 02:27:48;;;;;;;1.45;0.50;;;17.00;99.90;;;;;;4986268;28;20570;-70
2022/08/10 02:30:13;;;;;;;0.98;0.68;;;17.00;99.90;;;;;;4979583;28;20499;-70
2022/08/10 02:32:40;;;;;;;1.02;0.43;;;17.00;99.90;;;;;;4979159;28;20037;-70
2022/08/10 02:35:12;;;;;;;1.55;0.80;;;17.00;99.90;;;;;;5010853;28;20501;-72
2022/08/10 02:37:40;;;;;;;0.80;0.50;;;16.90;99.90;;;;;;4979406;28;20062;-72
2022/08/10 02:40:07;;;;;;;1.13;0.50;;;16.90;99.90;;;;;;4979948;28;20047;-69
2022/08/10 02:42:44;;;;;;;1.08;0.57;;;16.90;99.90;;;;;;4977346;28;20046;-70
2022/08/10 02:45:15;;;;;;;1.70;0.50;;;16.90;99.90;;;;;;4977634;28;20031;-71
2022/08/10 02:48:04;;;;;;;0.82;0.50;;;16.90;99.90;;;;;;4979332;28;20096;-69
2022/08/10 02:50:35;;;;;;;1.73;0.50;;;16.90;99.90;;;;;;5009288;28;20521;-70
2022/08/10 02:53:18;;;;;;;0.85;0.52;;;16.90;99.90;;;;;;4986324;28;20030;-73
2022/08/10 02:55:54;;;;;;;2.10;0.40;;;16.90;99.90;;;;;;4987326;28;20030;-71
2022/08/10 02:58:28;;;;;;;2.83;0.70;;;16.90;99.90;;;;;;4987157;28;20784;-72
2022/08/10 03:00:56;;;;;;;1.10;0.57;;;16.80;99.90;;;;;;4986195;28;20041;-71
2022/08/10 03:03:26;;;;;;;1.35;0.68;;;16.80;99.90;;;;;;4977848;28;20045;-72
2022/08/10 03:05:59;;;;;;;1.85;0.50;;;16.80;99.90;;;;;;4985157;28;20037;-71
2022/08/10 03:08:31;;;;;;;1.05;0.50;;;16.80;99.90;;;;;;4977278;28;20058;-71
2022/08/10 03:10:59;;;;;;;1.75;0.70;;;16.80;99.90;;;;;;4978111;28;20034;-72
2022/08/10 03:13:27;;;;;;;2.25;0.73;;;16.80;99.90;;;;;;4976146;28;20055;-68
2022/08/10 03:15:54;;;;;;;0.68;0.60;;;16.80;99.90;;;;;;4980872;28;20030;-72
2022/08/10 03:18:23;;;;;;;3.53;0.93;;;16.80;99.90;;;;;;4983076;28;20043;-70
2022/08/10 03:20:50;;;;;;;2.53;0.70;;;16.70;99.90;;;;;;4984660;28;20050;-72
2022/08/10 03:23:18;;;;;;;3.10;0.60;;;16.70;99.90;;;;;;4981917;28;20048;-72
2022/08/10 03:25:45;;;;;;;2.40;1.20;;;16.70;99.90;;;;;;4988064;28;20042;-71
2022/08/10 03:28:12;;;;;;;1.88;0.70;;;16.70;99.90;;;;;;4980118;28;20046;-72
2022/08/10 03:30:39;;;;;;;1.90;0.68;;;16.70;99.90;;;;;;4978579;28;20057;-69
2022/08/10 03:33:06;;;;;;;2.35;0.70;;;16.70;99.90;;;;;;4979009;28;21019;-70
2022/08/10 03:35:32;;;;;;;1.13;0.68;;;16.70;99.90;;;;;;4981611;28;20450;-71
2022/08/10 03:37:59;;;;;;;1.42;0.80;;;16.60;99.90;;;;;;4980143;28;20038;-72
2022/08/10 03:40:27;;;;;;;1.67;1.10;;;16.60;99.90;;;;;;4987481;28;20049;-72
2022/08/10 03:42:55;;;;;;;3.17;0.90;;;16.60;99.90;;;;;;4977604;28;20484;-72
2022/08/10 03:45:21;;;;;;;2.90;0.70;;;16.60;99.90;;;;;;4979483;28;20089;-72
2022/08/10 03:47:49;;;;;;;1.42;0.93;;;16.60;99.90;;;;;;4976324;28;21563;-71
2022/08/10 03:50:16;;;;;;;1.65;0.75;;;16.60;99.90;;;;;;4983792;28;20034;-72
2022/08/10 03:52:42;;;;;;;4.30;1.30;;;16.50;99.90;;;;;;4983261;28;20038;-72
2022/08/10 03:55:09;;;;;;;2.75;0.93;;;16.40;99.90;;;;;;4985060;28;20050;-72
2022/08/10 03:57:34;;;;;;;4.03;1.40;;;16.40;99.90;;;;;;4977329;28;20069;-72
2022/08/10 04:00:00;;;;;;;1.67;1.10;;;16.40;99.90;;;;;;4977481;28;20485;-70
2022/08/10 04:02:26;;;;;;;1.63;1.15;;;16.40;99.90;;;;;;4977625;28;20027;-71
2022/08/10 04:04:52;;;;;;;3.00;1.27;;;16.40;99.90;;;;;;4976048;28;20035;-71
2022/08/10 04:07:18;;;;;;;2.58;1.38;;;16.40;99.90;;;;;;4982582;28;20605;-72
2022/08/10 04:09:44;;;;;;;3.90;1.13;;;16.40;99.90;;;;;;5006734;28;20035;-69
2022/08/10 04:12:10;;;;;;;4.82;1.80;;;16.40;99.90;;;;;;4977965;28;20050;-69
2022/08/10 04:14:35;;;;;;;4.90;1.40;;;16.40;99.90;;;;;;4973940;28;20438;-69
2022/08/10 04:17:01;;;;;;;2.28;1.45;;;16.40;99.90;;;;;;4977550;28;20113;-70
2022/08/10 04:19:33;;;;;;;4.70;1.38;;;16.40;99.90;;;;;;4975619;28;20072;-72
2022/08/10 04:22:13;;;;;;;8.60;2.15;;;16.40;99.90;;;;;;4977105;28;20125;-73
2022/08/10 04:24:40;;;;;;;3.60;1.52;;;16.40;99.90;;;;;;4973082;28;20034;-73
2022/08/10 04:27:06;;;;;;;5.80;1.52;;;16.30;99.90;;;;;;4980782;28;20462;-72
2022/08/10 04:29:32;;;;;;;2.33;1.42;;;16.30;99.90;;;;;;4977198;28;20034;-71
2022/08/10 04:32:00;;;;;;;2.67;1.50;;;16.30;99.90;;;;;;4977412;28;20092;-72
2022/08/10 04:34:30;;;;;;;7.13;1.70;;;16.30;99.90;;;;;;5005043;28;20577;-72
2022/08/10 04:37:02;;;;;;;2.78;1.40;;;16.30;99.90;;;;;;4976198;28;20031;-72
2022/08/10 04:39:28;;;;;;;6.43;1.70;;;16.30;99.90;;;;;;4998330;28;20104;-72
2022/08/10 04:41:54;;;;;;;4.82;1.52;;;16.30;99.90;;;;;;4978945;28;20483;-71
2022/08/10 04:44:19;;;;;;;6.97;1.90;;;16.30;99.90;;;;;;4975345;28;20034;-71
2022/08/10 04:46:45;;;;;;;4.93;1.98;;;16.30;99.90;;;;;;4979842;28;20043;-71
2022/08/10 04:49:11;;;;;;;3.72;2.00;;;16.30;99.90;;;;;;4979310;28;20042;-73
2022/08/10 04:51:36;;;;;;;3.30;1.80;;;16.40;99.90;;;;;;4975731;28;20053;-71
2022/08/10 04:54:02;;;;;;;4.43;1.95;;;16.30;99.90;;;;;;4977278;28;20035;-72
2022/08/10 04:56:29;;;;;;;3.33;1.80;;;16.30;99.90;;;;;;4977369;28;20026;-72
2022/08/10 04:58:55;;;;;;;9.20;2.42;;;16.30;99.90;;;;;;4980444;28;20050;-72
2022/08/10 05:01:21;;;;;;;4.75;2.15;;;16.30;99.90;;;;;;4988749;28;20073;-72
2022/08/10 05:03:46;;;;;;;3.67;1.73;;;16.30;99.90;;;;;;4991182;28;20042;-70
2022/08/10 05:06:12;;;;;;;4.22;1.98;;;16.40;99.90;;;;;;4995803;28;20092;-72
2022/08/10 05:08:37;;;;;;;5.43;2.03;;;16.40;99.90;;;;;;4998171;28;20110;-72
2022/08/10 05:11:03;;;;;;;4.35;2.25;;;16.40;99.90;;;;;;4991277;28;20115;-72
2022/08/10 05:13:29;;;;;;;3.28;2.10;;;16.40;99.90;;;;;;4984883;28;20108;-71
2022/08/10 05:15:55;;;;;;;6.20;2.28;;;16.50;99.90;;;;;;4985958;28;20327;-73
2022/08/10 05:18:21;;;;;;;4.38;1.90;;;16.50;99.90;;;;;;4987014;28;20034;-72
2022/08/10 05:20:47;;;;;;;5.50;1.92;;;16.50;99.90;;;;;;4987639;28;20043;-71
2022/08/10 05:23:12;;;;;;;4.45;2.47;;;16.50;99.90;;;;;;4983110;28;20061;-72
2022/08/10 05:25:38;;;;;;;4.57;2.25;;;16.60;99.90;;;;;;4981845;28;20039;-71
2022/08/10 05:28:04;;;;;;;4.05;2.30;;;16.60;99.90;;;;;;4979921;28;20560;-71
2022/08/10 05:30:30;;;;;;;7.03;2.40;;;16.60;99.90;;;;;;4980764;28;20042;-73
2022/08/10 05:32:56;;;;;;;4.63;2.08;;;16.60;99.90;;;;;;4981199;28;20407;-72
2022/08/10 05:35:22;;;;;;;3.95;2.40;;;16.70;99.90;;;;;;4982360;28;20105;-72
2022/08/10 05:37:50;;;;;;;2.83;1.83;;;16.70;99.90;;;;;;4982163;28;20114;-71
2022/08/10 05:40:16;;;;;;;7.38;2.30;;;16.80;99.90;;;;;;4981588;28;20538;-70
2022/08/10 05:42:42;;;;;;;5.40;2.22;;;16.70;99.90;;;;;;4982773;28;20125;-72
2022/08/10 05:45:28;;;;;;;12.00;1.98;;;16.80;99.90;;;;;;4983973;28;20113;-72
2022/08/10 05:47:54;;;;;;;4.75;2.20;;;16.90;99.90;;;;;;4982503;28;20057;-72
2022/08/10 05:50:29;;;;;;;5.97;2.70;;;16.90;99.90;;;;;;4985789;28;20057;-69
2022/08/10 05:52:55;;;;;;;3.90;2.03;;;17.00;99.90;;;;;;4982913;28;20531;-70
2022/08/10 05:55:22;;;;;;;6.03;2.08;;;17.10;99.90;;;;;;4988088;28;20125;-70
2022/08/10 05:57:49;;;;;;;5.40;2.22;;;17.10;99.90;;;;;;4980676;28;20913;-72
2022/08/10 06:00:19;;;;;;;5.10;2.53;;;17.20;99.90;;;;;;4986891;28;20042;-69
2022/08/10 06:02:48;;;;;;;5.90;2.03;;;17.30;99.90;;;;;;4986058;28;20467;-72
2022/08/10 06:05:19;;;;;;;2.65;1.77;;;17.40;99.90;;;;;;4983712;28;20034;-71
2022/08/10 06:07:53;;;;;;;4.88;2.53;;;17.50;99.90;;;;;;4983848;28;20046;-72
2022/08/10 06:10:20;;;;;;;7.13;2.67;;;17.60;99.90;;;;;;4985217;28;20049;-72
2022/08/10 06:14:59;;;;;;;3.83;2.00;;;17.70;99.90;;;;;;4984832;28;20584;-70
2022/08/10 06:15:37;;;;;;;3.33;2.08;;;17.90;99.90;;;;;;4984585;28;20050;-70
2022/08/10 06:18:04;;;;;;;4.68;2.20;;;18.00;99.90;;;;;;4984682;28;20049;-72
2022/08/10 06:20:31;;;;;;;3.40;2.03;;;18.10;99.90;;;;;;4982706;28;20039;-71
2022/08/10 06:22:59;;;;;;;3.80;2.05;;;18.20;99.90;;;;;;4983684;28;20198;-72
2022/08/10 06:25:26;;;;;;;3.72;1.85;;;18.40;99.90;;;;;;4984957;28;20117;-71
2022/08/10 06:27:54;;;;;;;5.00;1.95;;;18.50;99.90;;;;;;4984308;28;20042;-70
2022/08/10 06:30:21;;;;;;;5.88;2.45;;;18.60;99.90;;;;;;4981535;28;20034;-72
2022/08/10 06:32:50;;;;;;;7.72;2.30;;;18.90;99.90;;;;;;5009547;28;20041;-73
2022/08/10 06:35:17;;;;;;;4.45;1.83;;;19.10;99.90;;;;;;5014465;28;20458;-71
2022/08/10 06:37:43;;;;;;;3.42;1.88;;;19.40;99.90;;;;;;4983793;28;20054;-70
2022/08/10 06:40:10;;;;;;;4.60;1.70;;;19.80;99.90;;;;;;4984322;28;20053;-68
2022/08/10 06:42:40;;;;;;;3.13;1.63;;;20.40;99.90;;;;;;4984516;28;20073;-68
2022/08/10 06:45:18;;;;;;;4.13;1.95;;;20.80;99.90;;;;;;4985457;28;20434;-70
2022/08/10 06:47:59;;;;;;;4.18;1.83;;;21.60;99.90;;;;;;4982659;28;20104;-71
2022/08/10 06:50:32;;;;;;;3.53;1.45;;;22.30;99.90;;;;;;4983301;28;20037;-73
2022/08/10 06:53:00;;;;;;;5.13;1.17;;;23.10;99.90;;;;;;4981194;28;20046;-73
2022/08/10 06:55:27;;;;;;;4.10;1.55;;;23.70;99.90;;;;;;4982234;28;20085;-71
2022/08/10 06:57:54;;;;;;;2.70;1.25;;;24.30;99.90;;;;;;4982817;28;20046;-72
2022/08/10 07:00:22;;;;;;;3.13;1.30;;;24.70;98.80;;;;;;4981545;28;20035;-71
2022/08/10 07:02:54;;;;;;;2.10;1.40;;;25.30;97.90;;;;;;4980186;28;20046;-71
2022/08/10 07:05:22;;;;;;;3.42;1.40;;;25.90;97.20;;;;;;4982755;28;20423;-72
2022/08/10 07:07:51;;;;;;;3.20;1.70;;;26.40;96.20;;;;;;4984043;28;20168;-70
2022/08/10 07:10:19;;;;;;;4.83;1.50;;;26.70;96.30;;;;;;4982505;28;20050;-71
2022/08/10 07:12:47;;;;;;;1.77;1.23;;;27.40;95.60;;;;;;4982562;28;20373;-71
2022/08/10 07:15:16;;;;;;;3.20;1.35;;;28.00;94.60;;;;;;4983559;28;20499;-71
2022/08/10 07:17:42;;;;;;;5.53;1.43;;;28.70;92.90;;;;;;4984894;28;20030;-70
2022/08/10 07:20:12;;;;;;;5.32;1.55;;;29.10;91.90;;;;;;4983579;28;20113;-70
2022/08/10 07:22:39;;;;;;;2.15;1.35;;;29.40;91.60;;;;;;4980956;28;20054;-70
2022/08/10 07:25:06;;;;;;;2.10;1.10;;;29.30;91.50;;;;;;4985474;28;20503;-71
2022/08/10 07:27:33;;;;;;;2.20;1.15;;;29.20;91.10;;;;;;4983483;28;20438;-71
2022/08/10 07:29:59;;;;;;;3.92;1.65;;;29.00;90.70;;;;;;4982402;28;20108;-72
2022/08/10 07:32:26;;;;;;;2.13;0.98;;;28.60;91.10;;;;;;4982800;28;20034;-69
2022/08/10 07:34:53;;;;;;;2.55;1.17;;;28.50;91.00;;;;;;4982334;28;20041;-72
2022/08/10 07:37:22;;;;;;;1.42;0.95;;;28.20;91.20;;;;;;4984326;28;20555;-72
2022/08/10 07:39:50;;;;;;;1.27;0.90;;;27.60;91.60;;;;;;4982824;28;20038;-69
2022/08/10 07:42:19;;;;;;;1.40;0.90;;;27.00;91.50;;;;;;4982425;28;20065;-69
2022/08/10 07:44:46;;;;;;;2.40;1.13;;;26.40;92.40;;;;;;4983930;28;20474;-70
2022/08/10 07:47:21;;;;;;;2.60;0.85;;;26.00;92.40;;;;;;4978793;28;20052;-72
2022/08/10 07:49:51;;;;;;;3.63;0.93;;;25.50;93.50;;;;;;4981060;28;20128;-70
2022/08/10 07:52:17;;;;;;;4.15;0.75;;;25.10;93.70;;;;;;4982583;28;20803;-68
2022/08/10 07:54:46;;;;;;;2.25;0.77;;;24.70;94.50;;;;;;4982731;28;20034;-71
2022/08/10 07:57:18;;;;;;;2.33;0.60;;;24.50;94.80;;;;;;4981811;28;20045;-70
2022/08/10 07:59:47;;;;;;;7.85;0.93;;;24.30;95.20;;;;;;4980907;28;20499;-72
2022/08/10 08:02:22;;;;;;;5.35;1.00;;;24.10;95.60;;;;;;4979889;28;20031;-72
2022/08/10 08:04:49;;;;;;;2.67;0.98;;;23.90;95.70;;;;;;4982534;28;20043;-72
2022/08/10 08:07:16;;;;;;;2.40;0.63;;;23.80;96.00;;;;;;4981430;28;20034;-71
2022/08/10 08:09:43;;;;;;;1.10;0.80;;;23.70;95.80;;;;;;4984589;28;20042;-71
2022/08/10 08:12:11;;;;;;;4.15;0.77;;;23.70;95.90;;;;;;4979536;28;20029;-71
2022/08/10 08:14:38;;;;;;;4.60;0.60;;;23.70;96.00;;;;;;4980932;28;20034;-71
2022/08/10 08:17:07;;;;;;;1.42;0.47;;;23.70;96.20;;;;;;4983213;28;20038;-71
2022/08/10 08:19:33;;;;;;;1.27;0.70;;;23.80;96.30;;;;;;5011238;28;20488;-72
2022/08/10 08:21:59;;;;;;;3.83;1.05;;;23.90;96.10;;;;;;4982282;28;20073;-72
2022/08/10 08:24:26;;;;;;;1.90;0.47;;;23.90;96.00;;;;;;4980534;28;20529;-70
2022/08/10 08:26:54;;;;;;;2.85;0.70;;;23.80;96.00;;;;;;4982394;28;20088;-71
2022/08/10 08:29:21;;;;;;;2.67;0.60;;;23.90;95.90;;;;;;4985135;28;20062;-72
2022/08/10 08:31:48;;;;;;;2.35;0.75;;;23.90;95.40;;;;;;4983706;28;20997;-70
2022/08/10 08:34:17;;;;;;;1.35;0.32;;;24.00;96.00;;;;;;4981121;28;20031;-71
2022/08/10 08:36:44;;;;;;;3.03;0.60;;;24.00;96.10;;;;;;5014303;28;20121;-72
2022/08/10 08:39:11;;;;;;;2.50;0.40;;;24.10;95.70;;;;;;4980383;28;20034;-72
2022/08/10 08:42:08;;;;;;;2.05;0.50;;;24.20;95.40;;;;;;4981315;28;20043;-71
2022/08/10 08:44:43;;;;;;;0.90;0.40;;;24.20;95.60;;;;;;4979302;28;20034;-73
2022/08/10 08:47:42;;;;;;;2.75;0.40;;;24.30;95.50;;;;;;4975274;28;20040;-68
2022/08/10 08:50:45;;;;;;;1.30;0.30;;;24.50;94.70;;;;;;4978798;28;20049;-72
2022/08/10 08:53:48;;;;;;;3.58;0.50;;;24.50;95.30;;;;;;4982648;28;20557;-71
2022/08/10 08:56:23;;;;;;;2.50;0.40;;;24.60;95.00;;;;;;4981012;28;20569;-71
2022/08/10 08:58:49;;;;;;;1.33;0.60;;;24.70;95.50;;;;;;4962970;28;20049;-73
2022/08/10 09:01:37;;;;;;;1.10;0.50;;;24.80;95.40;;;;;;4963940;28;20038;-71
2022/08/10 09:04:29;;;;;;;2.13;0.63;;;24.90;94.60;;;;;;4959998;28;20396;-72
2022/08/10 09:07:06;;;;;;;1.75;0.47;;;24.90;95.10;;;;;;4975545;28;20058;-70
2022/08/10 09:09:55;;;;;;;3.28;0.68;;;25.00;95.20;;;;;;4980245;28;20178;-71
2022/08/10 09:12:48;;;;;;;1.02;0.40;;;25.00;94.70;;;;;;4982319;28;20066;-72
2022/08/10 09:15:16;;;;;;;4.88;1.13;;;25.10;94.50;;;;;;4981606;28;20125;-71
2022/08/10 09:18:03;;;;;;;4.60;0.60;;;25.10;93.80;;;;;;4981305;28;20105;-73
2022/08/10 09:20:51;;;;;;;2.33;0.75;;;25.20;93.80;;;;;;5012312;28;20030;-72
2022/08/10 09:23:25;;;;;;;3.53;0.70;;;25.40;93.90;;;;;;5015667;28;20384;-71
2022/08/10 09:25:55;;;;;;;3.80;0.70;;;25.40;93.10;;;;;;4985419;28;21421;-71
2022/08/10 09:28:26;;;;;;;1.05;0.50;;;25.50;93.30;;;;;;4985644;28;20054;-69
2022/08/10 09:31:01;;;;;;;1.20;0.45;;;25.50;93.30;;;;;;4985014;28;20046;-71
2022/08/10 09:33:53;;;;;;;1.98;0.30;;;25.60;93.30;;;;;;4984274;28;20073;-71
2022/08/10 09:36:36;;;;;;;0.57;0.30;;;25.70;93.50;;;;;;4985095;28;20041;-70
2022/08/10 09:39:14;;;;;;;0.98;0.50;;;25.90;93.00;;;;;;4983398;28;20049;-71
2022/08/10 09:41:56;;;;;;;1.83;0.55;;;26.00;92.80;;;;;;4983199;28;20045;-73
2022/08/10 09:44:49;;;;;;;1.70;0.43;;;26.00;91.80;;;;;;4983068;28;20054;-72
2022/08/10 09:47:52;;;;;;;4.25;0.98;;;26.10;91.50;;;;;;4985784;28;20121;-71
2022/08/10 09:50:27;;;;;;;1.95;0.40;;;26.10;92.40;;;;;;4983611;28;20034;-70
2022/08/10 09:53:09;;;;;;;2.80;0.55;;;26.10;91.60;;;;;;4986170;28;20091;-72
2022/08/10 09:55:56;;;;;;;1.67;0.45;;;26.30;91.10;;;;;;5014230;28;20117;-72
2022/08/10 09:58:39;;;;;;;2.85;0.57;;;26.40;91.40;;;;;;5014822;28;20110;-70
2022/08/10 10:01:15;;;;;;;1.40;0.50;;;26.50;91.90;;;;;;4981197;28;20323;-70
2022/08/10 10:03:54;;;;;;;1.67;0.40;;;26.60;91.90;;;;;;4982370;28;20454;-71
2022/08/10 10:06:28;;;;;;;1.40;0.38;;;26.80;91.00;;;;;;4982899;28;20495;-72
2022/08/10 10:09:14;;;;;;;1.83;0.52;;;26.80;91.00;;;;;;4981501;28;20503;-72
2022/08/10 10:11:58;;;;;;;1.27;0.20;;;26.90;90.40;;;;;;4980162;28;20387;-72
2022/08/10 10:14:34;;;;;;;0.40;0.22;;;26.90;90.90;;;;;;4981861;28;20034;-73
2022/08/10 10:17:19;;;;;;;1.17;0.60;;;27.00;89.20;;;;;;4981684;28;20057;-71
2022/08/10 10:20:03;;;;;;;4.55;0.40;;;27.10;89.00;;;;;;4982831;28;20050;-71
2022/08/10 10:23:00;;;;;;;1.35;0.50;;;27.20;87.90;;;;;;5013153;28;20070;-72
2022/08/10 10:25:47;;;;;;;1.75;0.50;;;27.30;87.70;;;;;;4981607;28;20058;-71
2022/08/10 10:28:37;;;;;;;1.80;0.30;;;27.40;87.10;;;;;;4982555;28;20042;-72
2022/08/10 10:31:11;;;;;;;0.95;0.32;;;27.50;87.10;;;;;;4982913;28;20042;-70
2022/08/10 10:33:59;;;;;;;1.88;0.70;;;27.50;84.50;;;;;;4980510;28;20167;-73
2022/08/10 10:36:27;;;;;;;1.52;0.40;;;27.60;84.50;;;;;;4983394;28;20049;-72
2022/08/10 10:38:57;;;;;;;0.98;0.47;;;27.70;85.00;;;;;;4983491;28;20049;-70
2022/08/10 10:41:35;;;;;;;2.95;0.35;;;27.80;83.80;;;;;;4980653;28;20125;-72
2022/08/10 10:44:20;;;;;;;1.13;0.28;;;27.90;80.90;;;;;;4983521;28;20097;-71
2022/08/10 10:47:06;;;;;;;1.95;0.40;;;27.90;82.10;;;;;;4982553;28;20051;-72
2022/08/10 10:49:41;;;;;;;3.60;0.68;;;27.80;83.10;;;;;;4980552;28;20739;-73
2022/08/10 10:52:44;;;;;;;1.58;0.50;;;27.80;82.60;;;;;;5011259;28;20568;-72
2022/08/10 10:55:22;;;;;;;1.35;0.40;;;28.00;81.50;;;;;;4981459;28;20503;-72
2022/08/10 10:58:03;;;;;;;3.10;0.52;;;28.00;81.70;;;;;;4981517;28;20041;-73
2022/08/10 11:00:41;;;;;;;1.30;0.32;;;28.10;81.30;;;;;;4981122;28;20054;-72
2022/08/10 11:03:24;;;;;;;0.70;0.22;;;28.10;81.50;;;;;;4987897;28;20057;-73
2022/08/10 11:06:16;;;;;;;1.38;0.45;;;28.20;81.30;;;;;;4988812;28;20042;-72
2022/08/10 11:08:47;;;;;;;3.92;0.65;;;28.30;80.60;;;;;;5014729;28;20050;-71
2022/08/10 11:11:19;;;;;;;4.88;1.05;;;28.30;80.20;;;;;;4982030;28;20045;-73
2022/08/10 11:14:07;;;;;;;0.93;0.50;;;28.30;81.70;;;;;;4982774;28;20037;-73
2022/08/10 11:16:46;;;;;;;1.38;0.52;;;28.30;81.90;;;;;;4983530;28;20113;-72
2022/08/10 11:19:32;;;;;;;4.68;0.50;;;28.40;80.10;;;;;;4981161;28;20177;-73
2022/08/10 11:22:25;;;;;;;2.35;0.35;;;28.40;80.50;;;;;;4980295;28;20129;-73
2022/08/10 11:25:26;;;;;;;1.70;0.50;;;28.30;81.90;;;;;;4982638;28;20050;-73
2022/08/10 11:28:02;;;;;;;1.17;0.68;;;28.40;80.90;;;;;;4970928;28;20097;-72
2022/08/10 11:30:46;;;;;;;0.68;0.45;;;28.30;79.40;;;;;;4964196;28;20043;-71
2022/08/10 11:33:24;;;;;;;1.90;0.47;;;28.40;79.70;;;;;;4961228;28;20515;-70
2022/08/10 11:35:55;;;;;;;1.05;0.50;;;28.40;80.30;;;;;;4961138;28;20491;-70
2022/08/10 11:38:31;;;;;;;0.85;0.47;;;28.40;81.40;;;;;;4961139;28;20039;-71
2022/08/10 11:41:00;;;;;;;4.55;0.80;;;28.40;80.10;;;;;;4963125;28;20411;-71
2022/08/10 11:43:28;;;;;;;8.02;0.50;;;28.40;79.20;;;;;;4963123;28;20099;-72
2022/08/10 11:45:59;;;;;;;1.02;0.47;;;28.40;79.10;;;;;;4964938;28;20034;-73
2022/08/10 11:48:49;;;;;;;1.00;0.40;;;28.40;79.90;;;;;;4995274;28;20070;-72
2022/08/10 11:51:23;;;;;;;3.92;0.45;;;28.40;80.30;;;;;;4963191;28;20125;-72
2022/08/10 11:53:59;;;;;;;0.68;0.30;;;28.40;79.20;;;;;;4961745;28;20149;-72
2022/08/10 11:56:38;;;;;;;5.93;0.50;;;28.40;80.30;;;;;;4960893;28;20038;-71
2022/08/10 12:01:50;;;;;;;2.95;0.55;;;28.30;79.00;;;;;;4962051;28;20088;-73
2022/08/10 12:04:20;;;;;;;1.50;0.65;;;28.20;79.20;;;;;;4966604;28;20121;-71
2022/08/10 12:06:46;;;;;;;2.97;0.60;;;28.20;80.30;;;;;;4962626;28;20031;-71
2022/08/10 12:09:12;;;;;;;1.77;0.20;;;28.30;78.80;;;;;;4965751;28;20046;-73
2022/08/10 12:11:39;;;;;;;3.53;0.70;;;28.30;75.70;;;;;;4962675;28;20031;-72
2022/08/10 12:14:19;;;;;;;0.65;0.40;;;28.30;76.20;;;;;;4962724;28;20035;-73
2022/08/10 12:16:50;;;;;;;1.58;0.30;;;28.20;77.40;;;;;;4963980;28;20104;-72
2022/08/10 12:19:40;;;;;;;1.13;0.35;;;28.20;78.70;;;;;;4964240;28;20041;-72
2022/08/10 12:22:10;;;;;;;1.55;0.50;;;28.20;79.00;;;;;;4962564;28;20662;-72
2022/08/10 12:24:47;;;;;;;2.00;0.60;;;28.10;79.70;;;;;;4961024;28;20101;-72
2022/08/10 12:27:32;;;;;;;3.05;0.70;;;28.10;79.70;;;;;;4964308;28;20045;-72
2022/08/10 12:30:02;;;;;;;2.10;0.35;;;28.20;79.70;;;;;;4995950;28;20035;-72
2022/08/10 12:32:44;;;;;;;0.77;0.40;;;28.20;79.30;;;;;;4964078;28;20038;-72
2022/08/10 12:35:34;;;;;;;2.58;0.50;;;28.10;79.30;;;;;;4961731;28;20042;-71
2022/08/10 12:38:24;;;;;;;2.63;0.65;;;28.00;79.70;;;;;;4994236;28;20054;-71
2022/08/10 12:41:02;;;;;;;0.55;0.30;;;28.10;79.20;;;;;;4961030;28;20046;-72
2022/08/10 12:43:50;;;;;;;0.73;0.30;;;28.10;72.00;;;;;;4964852;28;20031;-72
2022/08/10 12:46:37;;;;;;;0.40;0.20;;;28.20;70.70;;;;;;4965142;28;20105;-71
2022/08/10 12:49:13;;;;;;;2.33;0.30;;;28.10;71.40;;;;;;4962636;28;20637;-70
2022/08/10 12:51:47;;;;;;;0.80;0.30;;;28.10;70.70;;;;;;4991642;28;20046;-70
2022/08/10 12:54:21;;;;;;;1.65;0.35;;;28.10;69.90;;;;;;4962204;28;20137;-71
2022/08/10 12:56:51;;;;;;;1.52;0.30;;;28.00;71.40;;;;;;4966164;28;20051;-71
2022/08/10 12:59:19;;;;;;;1.00;0.32;;;28.10;73.80;;;;;;4965643;28;20045;-73
2022/08/10 13:01:50;;;;;;;0.20;0.20;;;28.10;75.60;;;;;;4967048;28;20066;-72
2022/08/10 13:04:22;;;;;;;0.52;0.30;;;28.30;70.50;;;;;;4966124;28;20038;-72
2022/08/10 13:06:50;;;;;;;1.05;0.30;;;28.20;71.50;;;;;;4963485;28;20090;-72
2022/08/10 13:09:23;;;;;;;0.50;0.32;;;28.20;71.10;;;;;;4966303;28;20931;-71
2022/08/10 13:11:58;;;;;;;1.58;0.45;;;28.20;72.80;;;;;;4964073;28;20117;-73
2022/08/10 13:14:35;;;;;;;1.02;0.10;;;28.20;70.10;;;;;;4981402;28;20038;-72
2022/08/10 13:17:03;;;;;;;0.88;0.20;;;28.40;70.30;;;;;;4985113;28;20130;-71
2022/08/10 13:19:36;;;;;;;0.52;0.20;;;28.40;69.30;;;;;;4986549;28;20048;-73
2022/08/10 13:22:03;;;;;;;0.80;0.40;;;28.40;70.80;;;;;;4986026;28;20045;-72